createdAt,value
2023-05-08T00:00:13.484Z,3.39
2023-05-08T00:01:12.717Z,3.51
2023-05-08T00:02:12.827Z,3.48
2023-05-08T00:03:12.839Z,3.47
2023-05-08T00:04:12.917Z,3.43
2023-05-08T00:05:12.832Z,3.36
2023-05-08T00:06:12.816Z,3.38
2023-05-08T00:07:12.840Z,3.36
2023-05-08T00:08:12.875Z,3.34
2023-05-08T00:09:12.878Z,3.38
2023-05-08T00:10:13.369Z,3.35
2023-05-08T00:11:12.906Z,3.42
2023-05-08T00:12:13.657Z,3.46
2023-05-08T00:13:12.954Z,3.47
2023-05-08T00:14:12.942Z,3.41
2023-05-08T00:15:12.994Z,3.41
2023-05-08T00:16:13.388Z,3.42
2023-05-08T00:17:12.976Z,3.4
2023-05-08T00:18:13.238Z,3.38
2023-05-08T00:19:12.965Z,3.38
2023-05-08T00:20:13.303Z,3.36
2023-05-08T00:21:13.080Z,3.4
2023-05-08T00:22:13.069Z,3.41
2023-05-08T00:23:13.104Z,3.38
2023-05-08T00:24:13.093Z,3.31
2023-05-08T00:25:13.215Z,3.34
2023-05-08T00:26:13.280Z,3.32
2023-05-08T00:27:13.193Z,3.21
2023-05-08T00:28:13.213Z,3.17
2023-05-08T00:29:13.200Z,3.24
2023-05-08T00:30:13.941Z,3.35
2023-05-08T00:31:13.400Z,3.32
2023-05-08T00:32:13.291Z,3.26
2023-05-08T00:33:13.432Z,3.34
2023-05-08T00:34:13.323Z,3.36
2023-05-08T00:35:13.280Z,3.37
2023-05-08T00:36:13.555Z,3.34
2023-05-08T00:37:13.368Z,3.15
2023-05-08T00:38:13.321Z,2.96
2023-05-08T00:39:13.358Z,2.79
2023-05-08T00:40:13.604Z,2.53
2023-05-08T00:41:13.400Z,2.69
2023-05-08T00:42:13.360Z,2.55
2023-05-08T00:43:13.418Z,2.61
2023-05-08T00:44:13.474Z,2.14
2023-05-08T00:45:13.416Z,2.24
2023-05-08T00:46:13.779Z,2.45
2023-05-08T00:47:13.656Z,2.42
2023-05-08T00:48:13.388Z,2.1
2023-05-08T00:49:14.037Z,2.3
2023-05-08T00:50:14.103Z,2.57
2023-05-08T00:51:14.902Z,2.08
2023-05-08T00:52:13.565Z,2.34
2023-05-08T00:53:14.335Z,2.01
2023-05-08T00:54:14.267Z,1.91
2023-05-08T00:55:13.834Z,1.73
2023-05-08T00:56:15.075Z,1.8
2023-05-08T00:57:14.067Z,1.95
2023-05-08T00:58:14.248Z,1.95
2023-05-08T00:59:14.323Z,1.96
2023-05-08T01:00:16.253Z,2.04
2023-05-08T01:01:14.377Z,2.14
2023-05-08T01:02:13.886Z,2.06
2023-05-08T01:03:14.255Z,1.61
2023-05-08T01:04:14.324Z,1.49
2023-05-08T01:05:13.823Z,1.51
2023-05-08T01:06:13.780Z,1.58
2023-05-08T01:07:13.963Z,1.61
2023-05-08T01:08:14.057Z,1.57
2023-05-08T01:09:13.873Z,1.63
2023-05-08T01:10:14.203Z,1.65
2023-05-08T01:14:20.603Z,1.9
2023-05-08T01:15:24.052Z,1.9
2023-05-08T01:18:34.175Z,2.08
2023-05-08T01:21:45.742Z,2.03
2023-05-08T01:33:01.460Z,1.99
2023-05-08T01:37:11.111Z,1.8
2023-05-08T01:38:10.472Z,1.94
2023-05-08T01:41:16.347Z,2
2023-05-08T01:43:24.620Z,1.95
2023-05-08T01:44:17.353Z,1.93
2023-05-08T01:46:20.608Z,1.78
2023-05-08T01:47:20.448Z,1.72
2023-05-08T01:48:22.477Z,1.77
2023-05-08T01:49:33.256Z,1.8
2023-05-08T01:50:22.481Z,1.93
2023-05-08T01:51:22.440Z,1.84
2023-05-08T01:52:28.355Z,1.9
2023-05-08T01:53:22.837Z,1.87
2023-05-08T01:54:22.585Z,1.79
2023-05-08T01:55:21.468Z,1.79
2023-05-08T01:56:35.620Z,1.36
2023-05-08T01:57:28.246Z,1.27
2023-05-08T01:58:27.388Z,1.24
2023-05-08T01:59:27.807Z,1.2
2023-05-08T02:00:26.982Z,1.31
2023-05-08T02:01:27.898Z,1.52
2023-05-08T02:02:28.532Z,1.6
2023-05-08T02:03:27.420Z,1.48
2023-05-08T02:04:27.669Z,1.55
2023-05-08T02:05:27.384Z,1.52
2023-05-08T02:06:28.871Z,1.35
2023-05-08T02:07:27.654Z,1.35
2023-05-08T02:08:29.259Z,1.26
2023-05-08T02:09:28.358Z,1.46
2023-05-08T02:10:29.006Z,1.17
2023-05-08T02:11:27.522Z,1.23
2023-05-08T02:12:27.672Z,1.36
2023-05-08T02:13:28.227Z,1.58
2023-05-08T02:14:29.286Z,1.52
2023-05-08T02:15:28.568Z,1.54
2023-05-08T02:16:28.353Z,1.52
2023-05-08T02:17:27.553Z,1.63
2023-05-08T02:18:28.218Z,1.72
2023-05-08T02:19:29.046Z,1.75
2023-05-08T02:20:27.619Z,2.02
2023-05-08T02:21:27.519Z,2.04
2023-05-08T02:22:28.043Z,1.88
2023-05-08T02:23:27.587Z,1.73
2023-05-08T02:24:27.062Z,1.65
2023-05-08T02:25:28.002Z,1.81
2023-05-08T02:26:28.497Z,1.94
2023-05-08T02:27:27.914Z,1.95
2023-05-08T02:28:29.214Z,1.9
2023-05-08T02:29:28.488Z,1.64
2023-05-08T02:30:27.603Z,1.73
2023-05-08T02:31:27.646Z,1.88
2023-05-08T02:32:28.050Z,2.16
2023-05-08T02:33:27.622Z,2.3
2023-05-08T02:34:27.939Z,2.19
2023-05-08T02:35:28.286Z,2.04
2023-05-08T02:36:27.868Z,2.1
2023-05-08T02:37:28.514Z,2.08
2023-05-08T02:38:27.460Z,2.08
2023-05-08T02:39:29.845Z,2.04
2023-05-08T02:40:28.800Z,2.17
2023-05-08T02:41:29.226Z,2.24
2023-05-08T02:42:27.442Z,2.2
2023-05-08T02:43:27.471Z,2.34
2023-05-08T02:44:27.335Z,2.45
2023-05-08T02:45:32.602Z,2.3
2023-05-08T02:46:39.013Z,2.11
2023-05-08T02:50:42.149Z,2.33
2023-05-08T02:52:45.554Z,2.32
2023-05-08T02:53:46.279Z,2.5
2023-05-08T02:54:46.796Z,2.86
2023-05-08T02:56:53.367Z,2.79
2023-05-08T03:01:03.037Z,2.79
2023-05-08T03:02:09.481Z,2.83
2023-05-08T03:03:03.151Z,2.94
2023-05-08T03:04:05.917Z,3.02
2023-05-08T03:06:06.840Z,2.98
2023-05-08T03:07:04.125Z,3.1
2023-05-08T03:08:06.393Z,3.18
2023-05-08T03:09:05.511Z,3.15
2023-05-08T03:10:05.656Z,3.18
2023-05-08T03:11:08.904Z,3.15
2023-05-08T03:12:09.760Z,3.08
2023-05-08T03:13:09.208Z,3.25
2023-05-08T03:14:09.728Z,3.47
2023-05-08T03:15:11.346Z,3.33
2023-05-08T03:16:11.455Z,3.32
2023-05-08T03:17:10.903Z,3.33
2023-05-08T03:18:10.407Z,3.33
2023-05-08T03:19:14.828Z,3.23
2023-05-08T03:20:14.540Z,3.33
2023-05-08T03:21:13.486Z,3.25
2023-05-08T03:22:14.863Z,3.33
2023-05-08T03:23:13.735Z,3.34
2023-05-08T03:24:14.026Z,3.37
2023-05-08T03:25:13.513Z,3.58
2023-05-08T03:26:14.228Z,3.5
2023-05-08T03:27:12.406Z,3.5
2023-05-08T03:28:12.711Z,3.43
2023-05-08T03:29:13.234Z,3.52
2023-05-08T03:30:13.308Z,3.55
2023-05-08T03:31:12.440Z,3.66
2023-05-08T03:32:13.608Z,3.63
2023-05-08T03:33:12.278Z,3.6
2023-05-08T03:34:12.291Z,3.63
2023-05-08T03:35:13.369Z,3.61
2023-05-08T03:36:12.272Z,3.56
2023-05-08T03:37:12.193Z,3.63
2023-05-08T03:38:12.159Z,3.58
2023-05-08T03:39:12.224Z,3.61
2023-05-08T03:40:12.410Z,3.63
2023-05-08T03:41:12.579Z,3.61
2023-05-08T03:42:12.402Z,3.6
2023-05-08T03:43:12.417Z,3.6
2023-05-08T03:44:12.200Z,3.64
2023-05-08T03:45:13.970Z,3.6
2023-05-08T03:46:12.207Z,3.63
2023-05-08T03:47:12.151Z,3.62
2023-05-08T03:48:13.108Z,3.65
2023-05-08T03:49:12.464Z,3.59
2023-05-08T03:50:13.266Z,3.61
2023-05-08T03:51:12.505Z,3.62
2023-05-08T03:52:12.992Z,3.63
2023-05-08T03:53:12.068Z,3.65
2023-05-08T03:54:12.165Z,3.55
2023-05-08T03:55:12.126Z,3.59
2023-05-08T03:56:12.178Z,3.57
2023-05-08T03:57:12.212Z,3.7
2023-05-08T04:00:26.691Z,3.67
2023-05-08T04:01:31.570Z,3.72
2023-05-08T04:02:29.581Z,3.75
2023-05-08T04:04:38.191Z,3.91
2023-05-08T04:05:36.643Z,3.94
2023-05-08T04:06:48.454Z,3.98
2023-05-08T04:07:45.272Z,4.07
2023-05-08T04:08:41.500Z,4.12
2023-05-08T04:09:49.901Z,4.02
2023-05-08T04:10:48.850Z,4.12
2023-05-08T04:13:49.582Z,4.37
2023-05-08T04:15:52.471Z,4.38
2023-05-08T04:16:53.515Z,4.33
2023-05-08T04:17:57.298Z,4.43
2023-05-08T04:18:57.952Z,4.58
2023-05-08T04:19:59.065Z,4.54
2023-05-08T04:20:56.372Z,4.58
2023-05-08T04:21:58.346Z,4.58
2023-05-08T04:22:57.649Z,4.61
2023-05-08T04:23:57.038Z,4.61
2023-05-08T04:24:58.469Z,4.63
2023-05-08T04:25:56.310Z,4.64
2023-05-08T04:26:56.865Z,4.74
2023-05-08T04:27:55.968Z,4.74
2023-05-08T04:28:57.283Z,4.73
2023-05-08T04:29:56.682Z,4.69
2023-05-08T04:30:56.707Z,4.77
2023-05-08T04:31:56.292Z,4.8
2023-05-08T04:32:56.750Z,4.78
2023-05-08T04:33:56.090Z,4.76
2023-05-08T04:34:56.374Z,4.79
2023-05-08T04:35:56.377Z,4.79
2023-05-08T04:36:56.025Z,4.89
2023-05-08T04:37:56.000Z,4.9
2023-05-08T04:38:56.400Z,4.92
2023-05-08T04:39:56.010Z,5.04
2023-05-08T04:40:56.021Z,5.05
2023-05-08T04:41:56.270Z,5.06
2023-05-08T04:42:56.145Z,5.11
2023-05-08T04:43:56.604Z,5.23
2023-05-08T04:44:56.115Z,5.26
2023-05-08T04:45:56.165Z,5.26
2023-05-08T04:46:56.082Z,5.31
2023-05-08T04:47:56.205Z,5.35
2023-05-08T04:48:56.475Z,5.38
2023-05-08T04:49:56.271Z,5.49
2023-05-08T04:50:56.098Z,5.55
2023-05-08T04:51:56.120Z,5.53
2023-05-08T04:52:56.172Z,5.6
2023-05-08T04:53:56.152Z,5.59
2023-05-08T04:54:56.165Z,5.52
2023-05-08T04:55:56.206Z,5.55
2023-05-08T04:56:56.506Z,5.57
2023-05-08T04:57:56.626Z,5.7
2023-05-08T04:58:56.413Z,5.73
2023-05-08T04:59:56.299Z,5.88
2023-05-08T05:00:56.227Z,6.05
2023-05-08T05:01:56.669Z,6.01
2023-05-08T05:02:56.376Z,6.07
2023-05-08T05:03:56.311Z,6.15
2023-05-08T05:04:56.343Z,6.18
2023-05-08T05:05:59.683Z,6.11
2023-05-08T05:06:56.561Z,6.22
2023-05-08T05:07:56.374Z,6.16
2023-05-08T05:08:56.433Z,6.19
2023-05-08T05:09:56.402Z,6.35
2023-05-08T05:10:56.454Z,6.55
2023-05-08T05:11:58.153Z,6.8
2023-05-08T05:12:56.689Z,6.68
2023-05-08T05:13:56.460Z,6.65
2023-05-08T05:14:56.509Z,6.75
2023-05-08T05:15:58.897Z,6.69
2023-05-08T05:16:56.471Z,6.84
2023-05-08T05:17:56.599Z,6.97
2023-05-08T05:18:56.537Z,7.2
2023-05-08T05:19:56.500Z,7.13
2023-05-08T05:20:58.028Z,7.1
2023-05-08T05:21:56.863Z,7.2
2023-05-08T05:22:56.775Z,7.17
2023-05-08T05:23:56.568Z,7.26
2023-05-08T05:24:56.723Z,7.4
2023-05-08T05:25:56.606Z,7.46
2023-05-08T05:26:56.629Z,7.46
2023-05-08T05:27:56.690Z,7.44
2023-05-08T05:28:56.956Z,7.47
2023-05-08T05:29:57.262Z,7.51
2023-05-08T05:30:57.192Z,7.5
2023-05-08T05:31:57.204Z,7.59
2023-05-08T05:32:57.202Z,7.71
2023-05-08T05:33:57.449Z,7.79
2023-05-08T05:34:57.250Z,8.01
2023-05-08T05:35:57.259Z,8.01
2023-05-08T05:36:57.267Z,7.99
2023-05-08T05:37:57.254Z,8.01
2023-05-08T05:38:58.082Z,8.16
2023-05-08T05:39:57.282Z,8.16
2023-05-08T05:40:57.472Z,8.18
2023-05-08T05:41:57.295Z,8.16
2023-05-08T05:42:57.301Z,8.17
2023-05-08T05:43:57.334Z,8.2
2023-05-08T05:44:57.450Z,8.45
2023-05-08T05:46:03.199Z,8.23
2023-05-08T05:47:00.007Z,8.31
2023-05-08T05:48:00.000Z,8.48
2023-05-08T05:48:59.944Z,8.45
2023-05-08T05:49:59.915Z,8.56
2023-05-08T05:51:00.170Z,8.49
2023-05-08T05:51:59.932Z,8.43
2023-05-08T05:52:59.965Z,8.33
2023-05-08T05:54:00.005Z,8.27
2023-05-08T05:55:00.018Z,8.22
2023-05-08T05:56:00.043Z,8.32
2023-05-08T05:57:00.157Z,8.35
2023-05-08T05:58:00.001Z,8.33
2023-05-08T05:59:00.076Z,8.4
2023-05-08T06:00:00.443Z,8.57
2023-05-08T06:01:00.045Z,8.66
2023-05-08T06:02:00.234Z,8.68
2023-05-08T06:03:00.328Z,8.56
2023-05-08T06:04:00.437Z,8.67
2023-05-08T06:05:00.475Z,8.81
2023-05-08T06:06:00.342Z,8.93
2023-05-08T06:07:00.270Z,8.64
2023-05-08T06:08:00.218Z,8.55
2023-05-08T06:09:00.360Z,8.67
2023-05-08T06:10:00.397Z,8.74
2023-05-08T06:11:00.229Z,8.65
2023-05-08T06:12:00.345Z,8.63
2023-05-08T06:13:00.319Z,8.82
2023-05-08T06:14:00.254Z,8.75
2023-05-08T06:15:00.306Z,8.74
2023-05-08T06:16:00.214Z,8.77
2023-05-08T06:17:00.550Z,8.82
2023-05-08T06:18:00.333Z,8.92
2023-05-08T06:19:00.287Z,8.85
2023-05-08T06:20:00.549Z,8.74
2023-05-08T06:21:00.521Z,8.78
2023-05-08T06:22:00.343Z,8.87
2023-05-08T06:23:00.350Z,9.05
2023-05-08T06:24:00.316Z,9.07
2023-05-08T06:25:00.498Z,9.12
2023-05-08T06:26:01.425Z,9.19
2023-05-08T06:27:00.581Z,9
2023-05-08T06:28:00.481Z,9.1
2023-05-08T06:29:00.474Z,9.11
2023-05-08T06:30:00.650Z,9.45
2023-05-08T06:31:00.489Z,9.62
2023-05-08T06:32:00.535Z,9.15
2023-05-08T06:33:00.529Z,9.13
2023-05-08T06:34:00.498Z,9.43
2023-05-08T06:35:00.479Z,9.71
2023-05-08T06:36:00.519Z,9.54
2023-05-08T06:37:00.603Z,9.36
2023-05-08T06:38:01.081Z,9.36
2023-05-08T06:39:01.268Z,9.62
2023-05-08T06:40:11.481Z,9.64
2023-05-08T06:41:00.977Z,9.64
2023-05-08T06:42:01.053Z,9.63
2023-05-08T06:43:01.055Z,9.75
2023-05-08T06:44:01.025Z,9.91
2023-05-08T06:45:01.685Z,10.03
2023-05-08T06:46:01.131Z,9.65
2023-05-08T06:47:01.432Z,9.61
2023-05-08T06:48:01.267Z,9.82
2023-05-08T06:49:01.328Z,9.74
2023-05-08T06:50:01.298Z,9.48
2023-05-08T06:51:01.162Z,9.43
2023-05-08T06:52:01.212Z,9.51
2023-05-08T06:53:01.156Z,9.68
2023-05-08T06:54:01.456Z,9.58
2023-05-08T06:55:01.258Z,9.48
2023-05-08T06:56:01.266Z,9.71
2023-05-08T06:57:01.279Z,10.16
2023-05-08T06:58:01.645Z,10.29
2023-05-08T06:59:08.486Z,10.09
2023-05-08T07:00:06.412Z,10.08
2023-05-08T07:01:05.952Z,9.98
2023-05-08T07:02:06.109Z,10.2
2023-05-08T07:03:05.977Z,10.35
2023-05-08T07:04:06.045Z,10.12
2023-05-08T07:05:06.603Z,10.26
2023-05-08T07:06:06.440Z,10.21
2023-05-08T07:07:06.026Z,10.32
2023-05-08T07:08:06.040Z,9.89
2023-05-08T07:09:06.032Z,10.19
2023-05-08T07:10:07.889Z,10.05
2023-05-08T07:11:06.135Z,9.99
2023-05-08T07:12:06.305Z,10.07
2023-05-08T07:13:06.460Z,10.21
2023-05-08T07:14:06.084Z,9.93
2023-05-08T07:15:17.912Z,10.01
2023-05-08T07:16:09.972Z,10.26
2023-05-08T07:17:06.549Z,10.13
2023-05-08T07:18:06.572Z,10.35
2023-05-08T07:19:06.571Z,10.02
2023-05-08T07:20:07.283Z,10.33
2023-05-08T07:21:06.583Z,10.48
2023-05-08T07:22:06.749Z,10.57
2023-05-08T07:23:06.641Z,10.46
2023-05-08T07:24:07.075Z,10.53
2023-05-08T07:25:07.263Z,10.74
2023-05-08T07:26:06.674Z,10.48
2023-05-08T07:27:06.861Z,10.57
2023-05-08T07:28:06.879Z,10.85
2023-05-08T07:29:06.682Z,10.52
2023-05-08T07:30:07.633Z,10.43
2023-05-08T07:31:06.852Z,10.45
2023-05-08T07:32:07.839Z,10.64
2023-05-08T07:33:06.849Z,10.42
2023-05-08T07:34:06.792Z,10.42
2023-05-08T07:35:08.984Z,10.76
2023-05-08T07:36:07.371Z,11.07
2023-05-08T07:37:06.846Z,11.14
2023-05-08T07:38:07.289Z,10.94
2023-05-08T07:39:06.954Z,11
2023-05-08T07:40:07.517Z,10.82
2023-05-08T07:41:06.936Z,10.31
2023-05-08T07:42:07.108Z,10.37
2023-05-08T07:43:06.908Z,10.42
2023-05-08T07:44:06.900Z,10.6
2023-05-08T07:45:07.814Z,11.01
2023-05-08T07:46:06.965Z,11.46
2023-05-08T07:47:07.144Z,11.21
2023-05-08T07:48:06.992Z,10.95
2023-05-08T07:49:06.966Z,10.73
2023-05-08T07:50:07.432Z,10.68
2023-05-08T07:51:07.188Z,10.84
2023-05-08T07:52:07.176Z,11.05
2023-05-08T07:53:07.238Z,10.96
2023-05-08T07:54:07.067Z,11.31
2023-05-08T07:55:07.566Z,11.41
2023-05-08T07:56:07.472Z,11.16
2023-05-08T07:57:07.127Z,11.13
2023-05-08T07:58:07.325Z,11.3
2023-05-08T07:59:07.185Z,11.02
2023-05-08T08:00:08.313Z,11.29
2023-05-08T08:01:07.916Z,11.33
2023-05-08T08:02:07.796Z,10.77
2023-05-08T08:03:07.863Z,11.06
2023-05-08T08:04:07.791Z,11.33
2023-05-08T08:05:08.034Z,11.98
2023-05-08T08:06:07.765Z,11.16
2023-05-08T08:07:07.772Z,11.19
2023-05-08T08:08:07.848Z,11.43
2023-05-08T08:09:07.800Z,11.24
2023-05-08T08:10:08.191Z,11.35
2023-05-08T08:11:07.882Z,11.19
2023-05-08T08:12:07.887Z,11.8
2023-05-08T08:13:08.019Z,11.75
2023-05-08T08:14:07.882Z,11.84
2023-05-08T08:15:08.540Z,11.59
2023-05-08T08:16:08.014Z,11.63
2023-05-08T08:17:08.105Z,11.29
2023-05-08T08:18:08.072Z,10.98
2023-05-08T08:19:08.547Z,11.14
2023-05-08T08:20:08.579Z,11.67
2023-05-08T08:21:08.206Z,12.05
2023-05-08T08:22:08.281Z,12.11
2023-05-08T08:23:08.098Z,11.26
2023-05-08T08:24:08.135Z,11.15
2023-05-08T08:25:08.686Z,11.45
2023-05-08T08:26:08.104Z,11.21
2023-05-08T08:27:08.778Z,11.06
2023-05-08T08:28:08.137Z,10.92
2023-05-08T08:29:08.400Z,11.15
2023-05-08T08:30:16.884Z,11.19
2023-05-08T08:31:09.674Z,11.73
2023-05-08T08:32:09.722Z,12.24
2023-05-08T08:33:09.751Z,11.81
2023-05-08T08:34:09.728Z,11.64
2023-05-08T08:35:10.378Z,11.34
2023-05-08T08:36:12.960Z,11.78
2023-05-08T08:37:09.744Z,12.24
2023-05-08T08:38:09.767Z,12.15
2023-05-08T08:39:12.058Z,12.5
2023-05-08T08:40:10.250Z,12.22
2023-05-08T08:41:09.840Z,11.8
2023-05-08T08:42:10.007Z,11.8
2023-05-08T08:43:10.069Z,12.03
2023-05-08T08:44:09.879Z,12.33
2023-05-08T08:45:10.769Z,12.71
2023-05-08T08:46:14.156Z,13.17
2023-05-08T08:47:11.037Z,13.18
2023-05-08T08:48:11.260Z,12.97
2023-05-08T08:49:13.609Z,12.26
2023-05-08T08:50:14.583Z,12.45
2023-05-08T08:51:18.246Z,12.43
2023-05-08T08:53:17.822Z,12.83
2023-05-08T08:54:17.615Z,12.15
2023-05-08T08:55:16.930Z,11.89
2023-05-08T08:56:16.280Z,12.08
2023-05-08T08:57:15.869Z,12.35
2023-05-08T08:59:19.788Z,12.5
2023-05-08T09:00:21.142Z,12.97
2023-05-08T09:01:20.570Z,12.38
2023-05-08T09:02:21.538Z,12.72
2023-05-08T09:03:19.464Z,13.29
2023-05-08T09:04:19.648Z,13.78
2023-05-08T09:05:21.484Z,13.38
2023-05-08T09:06:19.473Z,13.02
2023-05-08T09:07:19.742Z,13.12
2023-05-08T09:08:19.451Z,12.45
2023-05-08T09:09:19.469Z,12.44
2023-05-08T09:10:20.262Z,12.54
2023-05-08T09:11:19.491Z,12.91
2023-05-08T09:12:19.532Z,12.91
2023-05-08T09:13:19.941Z,13.19
2023-05-08T09:14:19.587Z,13.27
2023-05-08T09:15:19.586Z,13.58
2023-05-08T09:16:19.649Z,12.98
2023-05-08T09:17:19.615Z,12.91
2023-05-08T09:18:19.629Z,12.76
2023-05-08T09:19:21.875Z,12.35
2023-05-08T09:20:21.145Z,12.76
2023-05-08T09:21:21.038Z,12.79
2023-05-08T09:22:20.931Z,12.84
2023-05-08T09:23:20.858Z,12.46
2023-05-08T09:24:20.694Z,12.54
2023-05-08T09:25:20.760Z,12.78
2023-05-08T09:27:21.377Z,12.93
2023-05-08T09:28:22.055Z,13.17
2023-05-08T09:29:21.329Z,13.63
2023-05-08T09:30:20.926Z,13.69
2023-05-08T09:32:25.952Z,13.46
2023-05-08T09:33:26.661Z,13.57
2023-05-08T09:34:26.591Z,13.57
2023-05-08T09:35:35.282Z,13.9
2023-05-08T09:36:26.486Z,14.03
2023-05-08T09:37:27.129Z,13.74
2023-05-08T09:39:30.553Z,13.11
2023-05-08T09:40:30.311Z,13.37
2023-05-08T09:41:30.522Z,13.01
2023-05-08T09:42:37.736Z,13.11
2023-05-08T09:43:33.993Z,13.46
2023-05-08T09:45:35.580Z,12.76
2023-05-08T09:46:35.275Z,12.88
2023-05-08T09:47:35.525Z,13.36
2023-05-08T09:48:37.926Z,13.67
2023-05-08T09:49:35.569Z,13.83
2023-05-08T09:50:37.795Z,13.51
2023-05-08T09:51:35.223Z,12.83
2023-05-08T09:52:36.330Z,12.51
2023-05-08T09:53:35.264Z,11.93
2023-05-08T09:54:35.496Z,11.97
2023-05-08T09:56:39.241Z,12.8
2023-05-08T09:57:39.707Z,13.23
2023-05-08T09:58:43.666Z,13.87
2023-05-08T09:59:40.054Z,13.39
2023-05-08T10:00:40.320Z,13.82
2023-05-08T10:01:40.032Z,14.35
2023-05-08T10:02:41.132Z,14.47
2023-05-08T10:03:46.455Z,13.73
2023-05-08T10:04:42.910Z,13.67
2023-05-08T10:05:42.867Z,13.25
2023-05-08T10:06:43.588Z,13.31
2023-05-08T10:07:42.877Z,13.08
2023-05-08T10:08:42.933Z,12.89
2023-05-08T10:10:44.421Z,13.1
2023-05-08T10:11:50.944Z,12.99
2023-05-08T10:12:47.950Z,12.42
2023-05-08T10:13:51.749Z,12.26
2023-05-08T10:14:48.782Z,12.32
2023-05-08T10:15:49.925Z,12.66
2023-05-08T10:16:49.682Z,12.76
2023-05-08T10:17:57.750Z,12.75
2023-05-08T10:18:50.115Z,12.93
2023-05-08T10:19:51.080Z,12.89
2023-05-08T10:20:50.822Z,12.87
2023-05-08T10:21:50.556Z,13.16
2023-05-08T10:22:50.105Z,13.32
2023-05-08T10:23:51.352Z,13.32
2023-05-08T10:24:52.809Z,13.57
2023-05-08T10:25:55.950Z,13.74
2023-05-08T10:29:07.277Z,13.37
2023-05-08T10:30:04.391Z,13.8
2023-05-08T10:31:06.433Z,13.53
2023-05-08T10:32:09.033Z,13.31
2023-05-08T10:33:09.260Z,13.41
2023-05-08T10:34:06.337Z,13.33
2023-05-08T10:35:08.348Z,13.81
2023-05-08T10:36:06.636Z,13.41
2023-05-08T10:37:09.049Z,13.63
2023-05-08T10:38:08.189Z,13.2
2023-05-08T10:39:06.338Z,13.22
2023-05-08T10:40:06.858Z,13.2
2023-05-08T10:41:06.433Z,13.01
2023-05-08T10:42:06.565Z,13.12
2023-05-08T10:43:06.675Z,13.38
2023-05-08T10:44:06.673Z,13.5
2023-05-08T10:45:07.419Z,13.58
2023-05-08T10:46:11.688Z,13.47
2023-05-08T10:47:15.793Z,13.67
2023-05-08T10:48:26.761Z,13.66
2023-05-08T10:52:21.108Z,13.24
2023-05-08T10:54:34.689Z,13.29
2023-05-08T10:55:33.053Z,13.55
2023-05-08T10:56:29.743Z,13.26
2023-05-08T10:57:33.152Z,12.86
2023-05-08T10:58:30.946Z,13.23
2023-05-08T10:59:34.724Z,13.49
2023-05-08T11:00:32.049Z,13.19
2023-05-08T11:01:31.727Z,13.17
2023-05-08T11:02:31.590Z,12.91
2023-05-08T11:03:33.425Z,13.24
2023-05-08T11:04:31.528Z,13.42
2023-05-08T11:05:31.530Z,13.48
2023-05-08T11:06:44.639Z,14.01
2023-05-08T11:08:48.944Z,13.8
2023-05-08T11:09:46.785Z,13.54
2023-05-08T11:10:51.497Z,13.92
2023-05-08T11:11:52.511Z,13.92
2023-05-08T11:12:49.988Z,14.16
2023-05-08T11:15:53.552Z,13.52
2023-05-08T11:17:54.719Z,13.45
2023-05-08T11:20:00.699Z,13.69
2023-05-08T11:21:01.186Z,13.67
2023-05-08T11:25:07.198Z,14.25
2023-05-08T11:27:06.250Z,13.96
2023-05-08T11:28:09.512Z,13.73
2023-05-08T11:31:11.428Z,13.89
2023-05-08T11:32:11.595Z,13.72
2023-05-08T11:33:12.444Z,13.82
2023-05-08T11:36:18.018Z,14.15
2023-05-08T11:37:18.720Z,14.99
2023-05-08T11:38:21.696Z,15.16
2023-05-08T11:39:17.967Z,14.42
2023-05-08T11:41:23.921Z,14.25
2023-05-08T11:44:30.114Z,14.15
2023-05-08T11:45:30.545Z,14.01
2023-05-08T11:48:34.036Z,14.17
2023-05-08T11:49:35.902Z,15.02
2023-05-08T11:50:35.174Z,14.94
2023-05-08T11:51:33.642Z,14.79
2023-05-08T11:52:37.287Z,14.16
2023-05-08T11:53:35.216Z,14.44
2023-05-08T11:54:33.764Z,14.86
2023-05-08T11:55:33.616Z,14.67
2023-05-08T11:56:33.899Z,15.41
2023-05-08T11:57:33.800Z,14.96
2023-05-08T11:58:33.605Z,14.74
2023-05-08T11:59:36.374Z,14.39
2023-05-08T12:00:33.642Z,14
2023-05-08T12:01:33.652Z,14.02
2023-05-08T12:02:40.540Z,13.86
2023-05-08T12:03:37.077Z,13.59
2023-05-08T12:04:43.915Z,13.67
2023-05-08T12:05:40.591Z,13.76
2023-05-08T12:06:41.045Z,13.7
2023-05-08T12:07:43.378Z,13.68
2023-05-08T12:08:40.320Z,14.34
2023-05-08T12:09:40.312Z,14.68
2023-05-08T12:10:50.144Z,14.35
2023-05-08T12:11:41.877Z,13.43
2023-05-08T12:12:42.471Z,13.06
2023-05-08T12:13:41.452Z,13.13
2023-05-08T12:14:41.447Z,12.92
2023-05-08T12:15:41.602Z,12.74
2023-05-08T12:16:41.472Z,12.68
2023-05-08T12:17:42.211Z,12.8
2023-05-08T12:18:41.508Z,12.9
2023-05-08T12:19:41.527Z,13.32
2023-05-08T12:20:41.525Z,14.03
2023-05-08T12:21:47.994Z,13.88
2023-05-08T12:22:50.787Z,14.27
2023-05-08T12:23:47.130Z,14.98
2023-05-08T12:24:47.073Z,15.02
2023-05-08T12:25:47.063Z,15.03
2023-05-08T12:26:47.082Z,14.92
2023-05-08T12:27:47.302Z,14.12
2023-05-08T12:28:47.084Z,14.06
2023-05-08T12:29:47.128Z,13.93
2023-05-08T12:30:47.337Z,13.25
2023-05-08T12:31:47.621Z,13.04
2023-05-08T12:32:47.794Z,12.78
2023-05-08T12:33:47.875Z,12.62
2023-05-08T12:34:47.227Z,12.6
2023-05-08T12:35:47.572Z,12.69
2023-05-08T12:36:47.240Z,12.64
2023-05-08T12:37:47.258Z,12.8
2023-05-08T12:38:47.270Z,12.82
2023-05-08T12:39:47.462Z,12.68
2023-05-08T12:40:47.920Z,13.03
2023-05-08T12:41:48.422Z,13.57
2023-05-08T12:42:50.596Z,14.01
2023-05-08T12:43:47.829Z,14.01
2023-05-08T12:44:52.291Z,13.61
2023-05-08T12:45:50.806Z,13.38
2023-05-08T12:46:52.372Z,13.46
2023-05-08T12:47:49.167Z,13.71
2023-05-08T12:48:48.772Z,14.31
2023-05-08T12:49:49.000Z,14.74
2023-05-08T12:50:48.843Z,14.18
2023-05-08T12:51:48.832Z,14.76
2023-05-08T12:52:51.381Z,14.62
2023-05-08T12:53:50.076Z,14.95
2023-05-08T12:54:49.134Z,15.02
2023-05-08T12:55:53.076Z,14.15
2023-05-08T12:56:49.741Z,14.59
2023-05-08T12:57:49.721Z,14.94
2023-05-08T12:58:49.449Z,15.27
2023-05-08T12:59:49.481Z,15.2
2023-05-08T13:00:50.440Z,15.43
2023-05-08T13:01:52.306Z,15.11
2023-05-08T13:02:53.372Z,14.17
2023-05-08T13:04:01.150Z,13.96
2023-05-08T13:04:54.669Z,14.08
2023-05-08T13:05:55.333Z,14.71
2023-05-08T13:06:57.109Z,14.85
2023-05-08T13:08:00.149Z,14.84
2023-05-08T13:08:56.384Z,15.44
2023-05-08T13:09:57.447Z,16.03
2023-05-08T13:10:56.463Z,15.16
2023-05-08T13:11:56.420Z,14.82
2023-05-08T13:12:56.521Z,15.3
2023-05-08T13:13:56.449Z,15.27
2023-05-08T13:14:56.524Z,16.02
2023-05-08T13:15:56.680Z,16.22
2023-05-08T13:16:56.555Z,16.55
2023-05-08T13:17:56.572Z,16.43
2023-05-08T13:18:56.545Z,15.54
2023-05-08T13:19:56.780Z,15.89
2023-05-08T13:20:56.961Z,15.79
2023-05-08T13:21:56.580Z,15.87
2023-05-08T13:22:56.620Z,15.06
2023-05-08T13:23:56.906Z,15.61
2023-05-08T13:24:56.697Z,15.81
2023-05-08T13:25:56.684Z,15.9
2023-05-08T13:26:56.682Z,16.23
2023-05-08T13:27:56.941Z,16.82
2023-05-08T13:28:56.815Z,16.2
2023-05-08T13:29:56.734Z,15.97
2023-05-08T13:30:56.763Z,15.85
2023-05-08T13:31:56.794Z,16.23
2023-05-08T13:32:57.324Z,16.06
2023-05-08T13:33:56.796Z,16.04
2023-05-08T13:35:13.515Z,16.65
2023-05-08T13:36:00.400Z,16.05
2023-05-08T13:37:00.384Z,15.94
2023-05-08T13:38:00.907Z,15.8
2023-05-08T13:39:00.514Z,15.34
2023-05-08T13:40:00.458Z,15.05
2023-05-08T13:41:00.735Z,14.75
2023-05-08T13:42:00.480Z,14.88
2023-05-08T13:43:00.505Z,15
2023-05-08T13:44:00.745Z,14.62
2023-05-08T13:45:00.429Z,14.75
2023-05-08T13:46:00.896Z,15.17
2023-05-08T13:47:00.565Z,14.82
2023-05-08T13:48:00.679Z,15.12
2023-05-08T13:49:00.809Z,14.41
2023-05-08T13:50:01.690Z,14.54
2023-05-08T13:51:00.598Z,14.33
2023-05-08T13:52:00.627Z,14.4
2023-05-08T13:53:00.619Z,14.18
2023-05-08T13:54:00.748Z,14.53
2023-05-08T13:55:00.641Z,14.86
2023-05-08T13:56:01.095Z,14.72
2023-05-08T13:57:01.123Z,14.55
2023-05-08T13:58:01.215Z,14.23
2023-05-08T13:59:00.705Z,14.59
2023-05-08T14:00:00.729Z,14.74
2023-05-08T14:01:07.673Z,15.1
2023-05-08T14:02:00.977Z,15.85
2023-05-08T14:03:01.000Z,16.47
2023-05-08T14:04:01.152Z,16.3
2023-05-08T14:05:00.950Z,15.68
2023-05-08T14:06:00.962Z,14.82
2023-05-08T14:07:01.004Z,15.32
2023-05-08T14:08:01.103Z,15.21
2023-05-08T14:09:01.227Z,14.77
2023-05-08T14:10:01.316Z,14.85
2023-05-08T14:11:01.089Z,14.81
2023-05-08T14:12:01.256Z,15.05
2023-05-08T14:13:01.301Z,15.23
2023-05-08T14:14:01.126Z,15.01
2023-05-08T14:15:01.638Z,15.45
2023-05-08T14:16:01.186Z,15.56
2023-05-08T14:17:01.553Z,15.02
2023-05-08T14:18:01.217Z,15.4
2023-05-08T14:19:01.265Z,15.2
2023-05-08T14:20:01.345Z,15.08
2023-05-08T14:21:01.428Z,15.03
2023-05-08T14:22:01.480Z,15.04
2023-05-08T14:23:01.432Z,14.56
2023-05-08T14:24:01.714Z,15.03